Main page
METAR-TAF:

METAR-TAF

Airports :

Cairo International Airport

Cairo, Egypt

latitude: 30-08N, longitude: 031-24E, elevation: 64 m

Current weather observation

The report was made 25 minutes ago, at 07:30 UTC
Wind 2 kt from the Northeast
Temperature 11°C
Humidity 82%
Pressure 1021 hPa
Visibility: 4000 m
Scattered clouds at a height of 2500 ft
mist

METAR: HECA 200730Z 04002KT 4000 BR SCT025 11/08 Q1021 NOSIG

Time: 09:55 (07:55 UTC)

Forecast

The report was made 2 hours and 55 minutes ago, at 05:00 UTC
Forecast valid from 20 at 06 UTC to 21 at 12 UTC
Wind 9 kt from the North/Northeast
Visibility 10 km or more
Scattered clouds at a height of 2500 ft
Temporary
from 20 at 06 UTC to 20 at 09 UTC
Wind 3 kt from variable directions
Visibility: 4000 m
mist

TAF: HECA 200500Z 2006/2112 03009KT 9999 SCT025 TEMPO 2006/2009 VRB03KT 4000 BR NSC

Weather observations and forecasts of more than 4000 airports (METAR and TAF reports).

The available stations are represented by yellow and red dots on the map.

Hover mouse over dot to see the name of the station.

Then click to see weather observations and forecasts.

To change the map : click on the green buttons with a black cross to zoom in, on the green button with a dash to zoom out, or on the green arrows for adjacent maps.


METAR-TAF: